Time;durP1;ratioP1;P1;durP2;ratioP2;P2;SDS_P1;SDS_P2;PMS_P1;PMS_P2;Temp;Humidity;BMP_temperature;BMP_pressure;BME280_temperature;BME280_humidity;BME280_pressure;Samples;Min_cycle;Max_cycle;Signal;HPM_P1;HPM_P2
2023/01/05 00:01:14;;;;;;;1.27;0.40;;;13.00;1.00;;;;;;5049320;28;20188;-54
2023/01/05 00:03:40;;;;;;;0.87;0.50;;;13.00;1.00;;;;;;5048527;28;20241;-54
2023/01/05 00:06:11;;;;;;;1.13;0.53;;;13.00;1.00;;;;;;5047004;28;20188;-54
2023/01/05 00:08:37;;;;;;;1.40;0.70;;;13.10;1.00;;;;;;5050313;28;20288;-55
2023/01/05 00:24:45;;;;;;;0.70;0.70;;;13.20;1.00;;;;;;5049160;28;20484;-54
2023/01/05 00:27:10;;;;;;;1.10;0.50;;;13.30;1.00;;;;;;5049237;28;20456;-55
2023/01/05 00:29:36;;;;;;;1.90;0.90;;;13.30;1.00;;;;;;5061078;28;20244;-56
2023/01/05 00:32:02;;;;;;;3.00;1.10;;;13.30;1.00;;;;;;5053568;28;20276;-55
2023/01/05 00:34:27;;;;;;;1.27;0.60;;;13.30;1.00;;;;;;5048381;28;20282;-55
2023/01/05 00:36:53;;;;;;;1.03;0.60;;;13.20;1.00;;;;;;5047465;28;20264;-55
2023/01/05 00:39:18;;;;;;;2.17;0.90;;;13.30;1.00;;;;;;5054838;28;20223;-55
2023/01/05 00:41:44;;;;;;;4.17;1.40;;;13.30;1.00;;;;;;5050122;28;20202;-54
2023/01/05 00:44:09;;;;;;;2.37;0.77;;;13.30;1.00;;;;;;5052686;28;20229;-56
2023/01/05 00:46:35;;;;;;;2.03;0.50;;;13.20;1.00;;;;;;5043111;28;20223;-55
2023/01/05 00:49:01;;;;;;;2.40;0.70;;;13.30;1.00;;;;;;5049954;28;20242;-54
2023/01/05 00:51:26;;;;;;;5.10;1.17;;;13.30;1.00;;;;;;5053278;28;20215;-54
2023/01/05 00:53:52;;;;;;;2.00;0.80;;;13.30;1.00;;;;;;5062040;28;20191;-55
2023/01/05 00:56:17;;;;;;;3.83;1.23;;;13.20;1.00;;;;;;5056029;28;20266;-55
2023/01/05 00:58:43;;;;;;;4.43;0.83;;;13.30;1.00;;;;;;5052007;28;20201;-55
2023/01/05 01:01:10;;;;;;;2.20;0.80;;;13.30;1.00;;;;;;5048963;28;20217;-54
2023/01/05 01:03:35;;;;;;;1.83;0.80;;;13.20;1.00;;;;;;5050638;28;20195;-55
2023/01/05 01:06:01;;;;;;;1.67;0.73;;;13.20;1.00;;;;;;5047127;28;20819;-55
2023/01/05 01:08:27;;;;;;;2.97;0.67;;;13.30;1.00;;;;;;5051050;28;20190;-55
2023/01/05 01:10:52;;;;;;;1.47;0.50;;;13.40;1.00;;;;;;5047372;28;20195;-54
2023/01/05 01:13:18;;;;;;;3.73;1.10;;;13.40;1.00;;;;;;5054121;28;20194;-55
2023/01/05 01:15:43;;;;;;;1.97;0.80;;;13.30;1.00;;;;;;5050337;28;20200;-55
2023/01/05 01:18:09;;;;;;;3.27;0.87;;;13.30;1.00;;;;;;5050644;28;20200;-55
2023/01/05 01:20:36;;;;;;;2.63;0.90;;;13.30;1.00;;;;;;5052432;28;20192;-54
2023/01/05 01:23:03;;;;;;;2.60;0.87;;;13.40;1.00;;;;;;5057476;28;20183;-55
2023/01/05 01:25:29;;;;;;;2.00;0.90;;;13.30;1.00;;;;;;5052527;28;20945;-55
2023/01/05 01:27:55;;;;;;;3.07;0.70;;;13.40;1.00;;;;;;5045873;28;20540;-54
2023/01/05 01:30:21;;;;;;;4.90;0.70;;;13.20;1.00;;;;;;5051483;28;20519;-54
2023/01/05 01:32:47;;;;;;;3.53;1.50;;;13.10;1.00;;;;;;5048417;28;20218;-56
2023/01/05 01:35:12;;;;;;;2.20;1.00;;;13.10;1.00;;;;;;5047586;28;20194;-54
2023/01/05 01:37:39;;;;;;;2.50;1.00;;;13.10;1.00;;;;;;5052818;28;20610;-54
2023/01/05 01:40:06;;;;;;;1.83;0.77;;;13.20;1.00;;;;;;5050547;28;20552;-53
2023/01/05 01:42:32;;;;;;;3.23;0.80;;;13.10;1.00;;;;;;5058609;28;20429;-54
2023/01/05 01:45:00;;;;;;;2.97;1.13;;;13.10;1.00;;;;;;5051820;28;20446;-54
2023/01/05 01:47:43;;;;;;;2.03;0.90;;;13.10;1.00;;;;;;5050762;28;20638;-55
2023/01/05 01:50:16;;;;;;;6.47;1.23;;;13.10;1.00;;;;;;5047821;28;20579;-55
2023/01/05 01:52:46;;;;;;;5.70;1.10;;;13.10;1.00;;;;;;5046722;28;20440;-54
2023/01/05 01:55:13;;;;;;;4.93;1.47;;;13.20;1.00;;;;;;5050500;28;20444;-54
2023/01/05 01:57:40;;;;;;;4.13;1.43;;;13.20;1.00;;;;;;5051164;28;20788;-54
2023/01/05 02:00:08;;;;;;;2.43;0.80;;;13.20;1.00;;;;;;5049945;28;20450;-54
2023/01/05 02:02:33;;;;;;;4.47;1.70;;;13.20;1.00;;;;;;5050319;28;21108;-54
2023/01/05 02:05:03;;;;;;;3.37;1.07;;;13.30;1.00;;;;;;5047953;28;20456;-55
2023/01/05 02:07:32;;;;;;;1.07;0.87;;;13.30;1.00;;;;;;5050406;28;20202;-55
2023/01/05 02:09:59;;;;;;;3.97;1.23;;;13.20;1.00;;;;;;5049373;28;20810;-54
2023/01/05 02:12:44;;;;;;;5.33;1.30;;;13.20;1.00;;;;;;5050110;28;20473;-54
2023/01/05 02:15:30;;;;;;;6.20;1.67;;;13.30;1.00;;;;;;5047992;28;20450;-55
2023/01/05 02:18:17;;;;;;;2.27;1.17;;;13.20;1.00;;;;;;5050120;28;20456;-54
2023/01/05 02:21:05;;;;;;;4.60;1.40;;;13.20;1.00;;;;;;5060291;28;20458;-54
2023/01/05 02:23:44;;;;;;;3.70;1.07;;;13.30;1.00;;;;;;5050544;28;20955;-55
2023/01/05 02:26:47;;;;;;;2.67;1.13;;;13.40;1.00;;;;;;5048354;28;20766;-54
2023/01/05 02:29:39;;;;;;;2.87;1.07;;;13.50;1.00;;;;;;5049406;28;20452;-55
2023/01/05 02:32:15;;;;;;;2.00;1.00;;;13.50;1.00;;;;;;5048102;28;20458;-54
2023/01/05 02:35:18;;;;;;;5.00;1.47;;;13.40;1.00;;;;;;5048857;28;20855;-55
2023/01/05 02:37:57;;;;;;;2.40;0.97;;;13.40;1.00;;;;;;5049406;28;20455;-55
2023/01/05 02:40:28;;;;;;;2.30;1.90;;;13.40;1.00;;;;;;5058147;28;20438;-56
2023/01/05 02:42:55;;;;;;;6.40;1.80;;;13.20;1.00;;;;;;5050464;28;20440;-54
2023/01/05 02:45:22;;;;;;;3.30;1.40;;;13.10;1.00;;;;;;5048367;28;20448;-55
2023/01/05 02:47:48;;;;;;;5.43;1.40;;;12.80;1.00;;;;;;5048120;28;20505;-54
2023/01/05 02:50:14;;;;;;;7.20;1.10;;;12.80;1.00;;;;;;5058268;28;20436;-54
2023/01/05 02:53:13;;;;;;;4.80;1.47;;;12.70;1.00;;;;;;5048531;28;20441;-54
2023/01/05 02:55:54;;;;;;;6.47;1.40;;;12.80;1.00;;;;;;5048611;28;20228;-55
2023/01/05 02:58:30;;;;;;;4.73;1.90;;;12.90;1.00;;;;;;5048916;28;20445;-54
2023/01/05 03:01:04;;;;;;;3.67;1.40;;;12.90;1.00;;;;;;5049020;28;20443;-54
2023/01/05 03:03:34;;;;;;;5.33;1.67;;;12.90;1.00;;;;;;5048756;28;20500;-54
2023/01/05 03:06:29;;;;;;;4.70;1.50;;;13.00;1.00;;;;;;5044318;28;20455;-56
2023/01/05 03:08:58;;;;;;;5.77;1.93;;;13.10;1.00;;;;;;5046213;28;20434;-53
2023/01/05 03:14:33;;;;;;;4.77;1.50;;;13.10;1.00;;;;;;5052539;28;20518;-56
2023/01/05 03:17:00;;;;;;;6.03;1.43;;;13.10;1.00;;;;;;5048874;28;20470;-54
2023/01/05 03:19:42;;;;;;;4.97;1.60;;;13.10;1.00;;;;;;5046905;28;20466;-53
2023/01/05 03:36:58;;;;;;;5.97;1.83;;;13.20;1.00;;;;;;5047999;28;20485;-54
2023/01/05 03:39:29;;;;;;;3.40;1.37;;;13.20;1.00;;;;;;5048786;28;20804;-55
2023/01/05 03:41:55;;;;;;;2.93;1.37;;;13.20;1.00;;;;;;5046279;28;20444;-54
2023/01/05 03:44:21;;;;;;;6.20;2.17;;;13.20;1.00;;;;;;5044775;28;21426;-54
2023/01/05 03:46:47;;;;;;;8.30;1.67;;;13.40;1.00;;;;;;5053377;28;20452;-56
2023/01/05 03:49:13;;;;;;;5.37;1.47;;;13.30;1.00;;;;;;5046616;28;20524;-54
2023/01/05 03:51:38;;;;;;;4.07;1.60;;;13.30;1.00;;;;;;5046834;28;20465;-54
2023/01/05 03:54:04;;;;;;;9.00;2.20;;;13.40;1.00;;;;;;5049423;28;20192;-54
2023/01/05 03:56:30;;;;;;;5.40;2.03;;;13.40;1.00;;;;;;5047763;28;20211;-54
2023/01/05 03:58:55;;;;;;;7.57;1.77;;;13.30;1.00;;;;;;5048160;28;20266;-55
2023/01/05 04:01:21;;;;;;;6.03;2.57;;;13.30;1.00;;;;;;5045794;28;20653;-55
2023/01/05 04:03:46;;;;;;;7.07;1.70;;;13.30;1.00;;;;;;5046333;28;20188;-55
2023/01/05 04:06:12;;;;;;;10.67;1.90;;;13.20;1.00;;;;;;5045492;28;20212;-54
2023/01/05 04:08:38;;;;;;;3.80;1.33;;;13.20;1.00;;;;;;5045986;28;20195;-55
2023/01/05 04:11:10;;;;;;;5.40;1.43;;;13.30;1.00;;;;;;5047782;28;20715;-55
2023/01/05 04:13:36;;;;;;;5.57;1.67;;;13.10;1.00;;;;;;5046977;28;20183;-55
2023/01/05 04:16:01;;;;;;;3.13;1.27;;;13.00;1.00;;;;;;5046451;28;20581;-55
2023/01/05 04:18:27;;;;;;;6.37;2.10;;;12.90;1.00;;;;;;5046770;28;20586;-56
2023/01/05 04:20:53;;;;;;;6.20;1.90;;;13.00;1.00;;;;;;5049476;28;20193;-56
2023/01/05 04:23:18;;;;;;;6.00;1.37;;;12.90;1.00;;;;;;5057000;28;20191;-54
2023/01/05 04:25:46;;;;;;;5.73;1.50;;;12.80;1.00;;;;;;5060015;28;20648;-55
2023/01/05 04:28:11;;;;;;;3.57;1.63;;;12.80;1.00;;;;;;5055289;28;20179;-54
2023/01/05 04:30:37;;;;;;;6.57;1.67;;;12.70;1.00;;;;;;5045571;28;20998;-56
2023/01/05 04:33:03;;;;;;;9.10;2.13;;;12.60;1.00;;;;;;5044168;28;20660;-56
2023/01/05 04:35:28;;;;;;;4.33;1.53;;;12.50;1.00;;;;;;5047897;28;20176;-55
2023/01/05 04:37:54;;;;;;;9.10;1.70;;;12.50;1.00;;;;;;5046044;28;20678;-54
2023/01/05 04:40:19;;;;;;;4.63;2.07;;;12.50;1.00;;;;;;5046233;28;20185;-54
2023/01/05 04:42:46;;;;;;;8.53;1.97;;;12.50;1.00;;;;;;5044480;28;20558;-54
2023/01/05 04:45:12;;;;;;;6.10;1.50;;;12.40;1.00;;;;;;5046831;28;20201;-54
2023/01/05 04:47:37;;;;;;;2.27;1.30;;;12.50;1.00;;;;;;5046197;28;20434;-54
2023/01/05 04:50:03;;;;;;;2.90;1.40;;;12.50;1.00;;;;;;5047291;28;20190;-55
2023/01/05 04:52:29;;;;;;;4.57;1.97;;;12.50;1.00;;;;;;5047882;28;20230;-54
2023/01/05 04:54:55;;;;;;;6.30;2.07;;;12.50;1.00;;;;;;5049534;28;21047;-54
2023/01/05 04:57:20;;;;;;;6.50;1.77;;;12.50;1.00;;;;;;5045327;28;20493;-53
2023/01/05 04:59:46;;;;;;;5.77;2.30;;;12.40;1.00;;;;;;5048332;28;20297;-55
2023/01/05 05:02:12;;;;;;;4.20;1.67;;;12.40;1.00;;;;;;5048372;28;20193;-55
2023/01/05 05:04:37;;;;;;;5.47;1.70;;;12.50;1.00;;;;;;5050119;28;20552;-54
2023/01/05 05:07:03;;;;;;;9.63;2.40;;;12.40;1.00;;;;;;5045882;28;20190;-55
2023/01/05 05:09:28;;;;;;;7.60;2.10;;;12.40;1.00;;;;;;5046157;28;20210;-53
2023/01/05 05:11:54;;;;;;;4.40;1.80;;;12.40;1.00;;;;;;5048788;28;20644;-54
2023/01/05 05:14:19;;;;;;;5.83;1.60;;;12.40;1.00;;;;;;5051326;28;20219;-54
2023/01/05 05:16:45;;;;;;;4.73;1.87;;;12.40;1.00;;;;;;5051489;28;20225;-55
2023/01/05 05:19:11;;;;;;;9.13;2.07;;;12.40;1.00;;;;;;5052302;28;20260;-55
2023/01/05 05:21:36;;;;;;;13.03;2.50;;;12.40;1.00;;;;;;5047743;28;20187;-54
2023/01/05 05:24:02;;;;;;;7.40;3.17;;;12.50;1.00;;;;;;5051774;28;20742;-54
2023/01/05 05:26:28;;;;;;;5.20;2.03;;;12.40;1.00;;;;;;5051916;28;20202;-55
2023/01/05 05:28:53;;;;;;;7.67;1.50;;;12.40;1.00;;;;;;5050548;28;20261;-56
2023/01/05 05:31:19;;;;;;;7.70;2.10;;;12.60;1.00;;;;;;5051118;28;20689;-56
2023/01/05 05:33:44;;;;;;;5.20;2.10;;;12.50;1.00;;;;;;5050827;28;20278;-56
2023/01/05 05:36:10;;;;;;;6.73;2.20;;;12.50;1.00;;;;;;5051983;28;20219;-56
2023/01/05 05:38:35;;;;;;;4.77;1.97;;;12.50;1.00;;;;;;5051179;28;20217;-56
2023/01/05 05:41:01;;;;;;;4.53;2.00;;;12.50;1.00;;;;;;5051749;28;20216;-57
2023/01/05 05:43:27;;;;;;;7.20;2.10;;;12.60;1.00;;;;;;5044194;28;20206;-56
2023/01/05 05:45:52;;;;;;;4.93;2.27;;;12.40;1.00;;;;;;5042701;28;20202;-56
2023/01/05 05:48:18;;;;;;;3.80;1.70;;;12.30;1.00;;;;;;5039541;28;21023;-56
2023/01/05 05:50:44;;;;;;;5.60;2.20;;;12.30;1.00;;;;;;5049770;28;20199;-56
2023/01/05 05:53:10;;;;;;;5.93;2.03;;;12.30;1.00;;;;;;5047411;28;20542;-55
2023/01/05 05:55:35;;;;;;;6.30;1.90;;;12.30;1.00;;;;;;5049485;28;20898;-55
2023/01/05 05:58:01;;;;;;;4.03;1.53;;;12.20;1.00;;;;;;5050885;28;20762;-55
2023/01/05 06:00:27;;;;;;;7.73;1.80;;;12.20;1.00;;;;;;5050950;28;20191;-55
2023/01/05 06:02:52;;;;;;;7.17;2.50;;;12.30;1.00;;;;;;5050292;28;20198;-56
2023/01/05 06:05:18;;;;;;;7.30;1.93;;;12.30;1.00;;;;;;5050533;28;20226;-57
2023/01/05 06:07:43;;;;;;;9.10;1.90;;;12.30;1.00;;;;;;5048590;28;20180;-56
2023/01/05 06:10:09;;;;;;;6.13;2.50;;;12.30;1.00;;;;;;5050417;28;20209;-56
2023/01/05 06:12:35;;;;;;;4.00;1.90;;;12.40;1.00;;;;;;5049903;28;20185;-56
2023/01/05 06:15:00;;;;;;;12.30;2.30;;;12.30;1.00;;;;;;5050667;28;20433;-56
2023/01/05 06:17:26;;;;;;;3.57;1.63;;;12.30;1.00;;;;;;5049049;28;20211;-57
2023/01/05 06:19:52;;;;;;;3.10;1.40;;;12.30;1.00;;;;;;5049678;28;20183;-57
2023/01/05 06:22:17;;;;;;;4.30;2.17;;;12.40;1.00;;;;;;5049943;28;20519;-56
2023/01/05 06:24:43;;;;;;;5.50;2.03;;;12.40;1.00;;;;;;5047456;28;20190;-55
2023/01/05 06:27:09;;;;;;;7.50;1.80;;;12.40;1.00;;;;;;5049915;28;20240;-57
2023/01/05 06:29:35;;;;;;;7.63;2.37;;;12.40;1.00;;;;;;5050827;28;20232;-55
2023/01/05 06:32:00;;;;;;;5.60;2.10;;;12.30;1.00;;;;;;5049610;28;20434;-58
2023/01/05 06:34:26;;;;;;;6.00;2.17;;;12.40;1.00;;;;;;5050609;28;20278;-57
2023/01/05 06:36:54;;;;;;;6.97;2.77;;;12.30;1.00;;;;;;5050141;28;20217;-56
2023/01/05 06:39:19;;;;;;;5.60;1.97;;;12.30;1.00;;;;;;5065979;28;20183;-57
2023/01/05 06:41:45;;;;;;;4.60;1.80;;;12.30;1.00;;;;;;5051614;28;20437;-56
2023/01/05 06:44:11;;;;;;;5.53;2.20;;;12.20;1.00;;;;;;5050108;28;20243;-56
2023/01/05 06:46:36;;;;;;;7.10;2.30;;;12.30;1.00;;;;;;5049594;28;20334;-55
2023/01/05 06:49:02;;;;;;;9.40;2.27;;;12.30;1.00;;;;;;5050245;28;20305;-56
2023/01/05 06:51:28;;;;;;;4.83;2.07;;;12.20;1.00;;;;;;5050133;28;20195;-57
2023/01/05 06:53:53;;;;;;;4.50;2.00;;;12.20;1.00;;;;;;5050178;28;20195;-57
2023/01/05 06:56:19;;;;;;;5.50;2.30;;;12.20;1.00;;;;;;5049315;28;20210;-57
2023/01/05 06:58:44;;;;;;;6.00;2.10;;;12.20;1.00;;;;;;5049889;28;20222;-57
2023/01/05 07:01:10;;;;;;;6.80;2.50;;;12.20;1.00;;;;;;5049393;28;20218;-55
2023/01/05 07:03:36;;;;;;;6.67;2.50;;;12.30;1.00;;;;;;5050068;28;20186;-57
2023/01/05 07:06:03;;;;;;;6.20;2.33;;;12.40;1.00;;;;;;5049557;28;20191;-56
2023/01/05 07:08:28;;;;;;;7.00;2.40;;;12.20;1.00;;;;;;5049678;28;20249;-57
2023/01/05 07:10:54;;;;;;;5.20;1.80;;;12.20;1.00;;;;;;5048944;28;20427;-57
2023/01/05 07:13:20;;;;;;;6.80;2.50;;;12.10;1.00;;;;;;5049238;28;20710;-56
2023/01/05 07:15:46;;;;;;;8.50;2.20;;;12.10;1.00;;;;;;5049339;28;20233;-57
2023/01/05 07:18:11;;;;;;;5.93;2.33;;;12.20;1.00;;;;;;5049733;28;20442;-57
2023/01/05 07:20:37;;;;;;;9.20;2.70;;;12.20;1.00;;;;;;5049278;28;20252;-57
2023/01/05 07:23:03;;;;;;;9.40;2.93;;;12.20;1.00;;;;;;5049454;28;20660;-56
2023/01/05 07:25:30;;;;;;;7.80;2.33;;;12.20;1.00;;;;;;5047612;28;20194;-58
2023/01/05 07:27:56;;;;;;;5.00;2.17;;;12.30;1.00;;;;;;5048384;28;20458;-57
2023/01/05 07:30:23;;;;;;;7.10;2.70;;;12.30;1.00;;;;;;5048683;28;20449;-57
2023/01/05 07:32:48;;;;;;;5.57;2.80;;;12.30;1.00;;;;;;5048111;28;20419;-56
2023/01/05 07:35:14;;;;;;;5.83;2.23;;;12.30;1.00;;;;;;5049035;28;20917;-57
2023/01/05 07:37:39;;;;;;;4.53;1.93;;;12.20;1.00;;;;;;5049181;28;20260;-56
2023/01/05 07:40:06;;;;;;;2.80;1.90;;;12.20;1.00;;;;;;5048846;28;20250;-58
2023/01/05 07:42:32;;;;;;;6.07;2.47;;;12.30;1.00;;;;;;5048990;28;20191;-57
2023/01/05 07:44:57;;;;;;;2.27;1.70;;;12.20;1.00;;;;;;5048218;28;20557;-57
2023/01/05 07:47:23;;;;;;;4.23;2.17;;;12.20;1.00;;;;;;5049385;28;20426;-56
2023/01/05 07:49:48;;;;;;;5.63;2.40;;;12.20;1.00;;;;;;5047798;28;20866;-56
2023/01/05 07:52:14;;;;;;;6.00;2.33;;;12.30;1.00;;;;;;5053146;28;20224;-58
2023/01/05 07:54:40;;;;;;;6.77;2.23;;;12.30;1.00;;;;;;5061658;28;20626;-57
2023/01/05 07:57:05;;;;;;;6.83;2.13;;;12.30;1.00;;;;;;5047923;28;20214;-57
2023/01/05 07:59:31;;;;;;;7.23;2.10;;;12.10;1.00;;;;;;5048404;28;20191;-56
2023/01/05 08:01:57;;;;;;;3.97;2.50;;;12.00;1.00;;;;;;5048071;28;20202;-58
2023/01/05 08:04:23;;;;;;;5.60;2.70;;;11.90;1.00;;;;;;5048182;28;20198;-56
2023/01/05 08:06:48;;;;;;;7.23;2.30;;;11.70;1.00;;;;;;5054595;28;20900;-58
2023/01/05 08:11:58;;;;;;;1.87;1.70;;;11.60;1.00;;;;;;5047639;28;20193;-56
2023/01/05 08:14:24;;;;;;;7.60;2.43;;;11.70;1.00;;;;;;5048831;28;20454;-56
2023/01/05 08:16:49;;;;;;;3.97;2.40;;;11.60;1.00;;;;;;5048605;28;20241;-58
2023/01/05 08:19:15;;;;;;;4.70;2.30;;;11.60;1.00;;;;;;5048418;28;20290;-57
2023/01/05 08:21:40;;;;;;;3.50;2.00;;;11.70;1.00;;;;;;5048897;28;20191;-57
2023/01/05 08:24:06;;;;;;;8.50;2.60;;;11.70;1.00;;;;;;5048821;28;20185;-56
2023/01/05 08:26:32;;;;;;;9.43;2.03;;;11.80;1.00;;;;;;5048033;28;20201;-56
2023/01/05 08:28:58;;;;;;;4.53;1.80;;;11.90;1.00;;;;;;5048611;28;20210;-57
2023/01/05 08:31:26;;;;;;;7.93;2.50;;;11.80;1.00;;;;;;5048690;28;20253;-56
2023/01/05 08:33:58;;;;;;;3.40;1.73;;;11.80;1.00;;;;;;5048978;28;20185;-56
2023/01/05 08:36:25;;;;;;;5.40;2.30;;;11.80;1.00;;;;;;5048257;28;20464;-57
2023/01/05 08:38:52;;;;;;;4.33;1.97;;;11.90;1.00;;;;;;5049056;28;20909;-56
2023/01/05 08:41:20;;;;;;;14.47;4.10;;;11.50;1.00;;;;;;5047770;28;20453;-56
2023/01/05 08:43:53;;;;;;;4.90;2.30;;;11.80;1.00;;;;;;5047858;28;20944;-54
2023/01/05 08:46:22;;;;;;;5.70;2.37;;;11.80;1.00;;;;;;5048573;28;20440;-57
2023/01/05 08:48:53;;;;;;;3.03;1.60;;;11.90;1.00;;;;;;5052564;28;20442;-56
2023/01/05 08:51:21;;;;;;;8.83;2.80;;;11.80;1.00;;;;;;5052224;28;20441;-55
2023/01/05 08:53:47;;;;;;;4.63;2.00;;;11.80;1.00;;;;;;5059046;28;20442;-56
2023/01/05 08:56:12;;;;;;;6.43;3.23;;;11.70;1.00;;;;;;5051022;28;20558;-56
2023/01/05 08:58:39;;;;;;;7.03;2.53;;;11.70;1.00;;;;;;5054451;28;20495;-54
2023/01/05 09:01:14;;;;;;;6.33;2.40;;;11.60;1.00;;;;;;5052415;28;20225;-55
2023/01/05 09:03:39;;;;;;;7.57;2.67;;;11.60;1.00;;;;;;5050248;28;20799;-55
2023/01/05 09:06:08;;;;;;;4.67;1.70;;;11.60;1.00;;;;;;5052374;28;20416;-57
2023/01/05 09:08:34;;;;;;;3.00;2.03;;;11.70;1.00;;;;;;5052508;28;20180;-56
2023/01/05 09:11:11;;;;;;;4.87;2.10;;;11.70;1.00;;;;;;5052444;28;20457;-55
2023/01/05 09:13:37;;;;;;;6.63;2.50;;;11.80;1.00;;;;;;5051888;28;20532;-56
2023/01/05 09:16:09;;;;;;;2.37;1.90;;;11.90;1.00;;;;;;5052359;28;20468;-55
2023/01/05 09:18:35;;;;;;;3.63;1.87;;;11.90;1.00;;;;;;5053643;28;20447;-56
2023/01/05 09:21:02;;;;;;;4.97;2.23;;;11.90;1.00;;;;;;5052343;28;20448;-57
2023/01/05 09:23:27;;;;;;;4.73;2.40;;;11.90;1.00;;;;;;5055671;28;20426;-55
2023/01/05 09:25:53;;;;;;;5.93;2.67;;;12.00;1.00;;;;;;5051987;28;20440;-57
2023/01/05 09:28:19;;;;;;;4.40;2.10;;;11.90;1.00;;;;;;5052130;28;20194;-55
2023/01/05 09:30:44;;;;;;;9.40;3.20;;;11.80;1.00;;;;;;5051238;28;20206;-56
2023/01/05 09:33:10;;;;;;;5.67;2.30;;;11.80;1.00;;;;;;5059117;28;20699;-56
2023/01/05 09:35:35;;;;;;;4.73;2.50;;;11.70;1.00;;;;;;5059482;28;20215;-58
2023/01/05 09:38:01;;;;;;;5.30;2.67;;;11.80;1.00;;;;;;5050868;28;20291;-57
2023/01/05 09:40:28;;;;;;;3.20;2.10;;;11.90;1.00;;;;;;5051251;28;20193;-57
2023/01/05 09:42:54;;;;;;;5.07;2.27;;;11.90;1.00;;;;;;5051148;28;20268;-55
2023/01/05 09:45:26;;;;;;;5.10;1.90;;;11.90;1.00;;;;;;5050556;28;20453;-57
2023/01/05 09:47:54;;;;;;;7.20;3.20;;;11.90;1.00;;;;;;5051635;28;20195;-55
2023/01/05 09:50:23;;;;;;;9.97;3.00;;;12.00;1.00;;;;;;5051193;28;20468;-56
2023/01/05 09:52:52;;;;;;;4.67;2.33;;;12.00;1.00;;;;;;5053656;28;20493;-56
2023/01/05 09:55:20;;;;;;;3.53;1.80;;;12.00;1.00;;;;;;5051522;28;20450;-56
2023/01/05 09:58:04;;;;;;;4.20;1.50;;;12.10;1.00;;;;;;5053310;28;20459;-55
2023/01/05 10:00:31;;;;;;;6.23;1.80;;;12.10;1.00;;;;;;5071403;28;20437;-56
2023/01/05 10:03:13;;;;;;;4.10;2.23;;;12.10;1.00;;;;;;5071491;28;20463;-55
2023/01/05 10:05:41;;;;;;;10.03;2.27;;;12.10;1.00;;;;;;5065150;28;20440;-55
2023/01/05 10:08:15;;;;;;;7.00;2.10;;;12.10;1.00;;;;;;5050337;28;20453;-56
2023/01/05 10:13:01;;;;;;;4.57;1.90;;;12.20;1.00;;;;;;5051104;28;20452;-55
2023/01/05 10:13:41;;;;;;;4.93;2.10;;;12.30;1.00;;;;;;5051083;28;20443;-56
2023/01/05 10:16:14;;;;;;;3.70;1.70;;;12.40;1.00;;;;;;5050768;28;20484;-56
2023/01/05 10:18:40;;;;;;;2.83;1.30;;;12.40;1.00;;;;;;5050416;28;20529;-56
2023/01/05 10:21:25;;;;;;;5.47;1.70;;;12.60;1.00;;;;;;5051292;28;20888;-57
2023/01/05 10:24:28;;;;;;;4.40;1.63;;;12.50;1.00;;;;;;5050035;28;20192;-55
2023/01/05 10:27:12;;;;;;;5.27;1.50;;;12.30;1.00;;;;;;5049394;28;20461;-57
2023/01/05 10:29:48;;;;;;;4.03;1.80;;;12.30;1.00;;;;;;5050240;28;20444;-56
2023/01/05 10:32:39;;;;;;;6.50;2.20;;;12.30;1.00;;;;;;5050720;28;20433;-55
2023/01/05 10:35:25;;;;;;;3.77;1.40;;;12.30;1.00;;;;;;5049905;28;20410;-55
2023/01/05 10:38:10;;;;;;;3.23;1.37;;;12.30;1.00;;;;;;5050521;28;20455;-56
2023/01/05 10:40:48;;;;;;;5.53;2.03;;;12.40;1.00;;;;;;5050506;28;20441;-57
2023/01/05 10:43:22;;;;;;;3.80;1.70;;;12.40;1.00;;;;;;5050784;28;20465;-56
2023/01/05 10:45:47;;;;;;;4.20;1.90;;;12.20;1.00;;;;;;5050602;28;20444;-55
2023/01/05 10:48:17;;;;;;;3.30;1.50;;;11.80;1.00;;;;;;5047751;28;20474;-55
2023/01/05 10:50:45;;;;;;;4.10;1.93;;;11.60;1.00;;;;;;5048902;28;20205;-55
2023/01/05 10:53:20;;;;;;;3.30;1.50;;;11.50;1.00;;;;;;5068828;28;20644;-55
2023/01/05 10:56:03;;;;;;;4.67;2.30;;;11.50;1.00;;;;;;5070046;28;20456;-56
2023/01/05 10:58:37;;;;;;;3.47;1.57;;;11.50;1.00;;;;;;5070120;28;20419;-56
2023/01/05 11:01:04;;;;;;;4.40;1.87;;;11.70;1.00;;;;;;5070218;28;20407;-56
2023/01/05 11:03:37;;;;;;;7.20;1.50;;;11.80;1.00;;;;;;5070137;28;20468;-55
2023/01/05 11:06:04;;;;;;;6.10;1.80;;;11.70;1.00;;;;;;5048095;28;20456;-57
2023/01/05 11:08:31;;;;;;;4.43;1.77;;;11.70;1.00;;;;;;5049887;28;20441;-55
2023/01/05 11:11:00;;;;;;;5.87;1.70;;;11.70;1.00;;;;;;5047999;28;20449;-55
2023/01/05 11:13:38;;;;;;;9.33;1.90;;;11.70;1.00;;;;;;5054071;28;20460;-55
2023/01/05 11:16:14;;;;;;;4.70;1.90;;;11.60;1.00;;;;;;5053768;28;20475;-56
2023/01/05 11:19:02;;;;;;;5.30;2.33;;;11.80;1.00;;;;;;5053988;28;20606;-56
2023/01/05 11:21:44;;;;;;;4.10;1.80;;;11.90;1.00;;;;;;5047251;28;20460;-56
2023/01/05 11:24:29;;;;;;;8.30;2.00;;;11.90;1.00;;;;;;5048368;28;20447;-56
2023/01/05 11:26:57;;;;;;;4.40;1.60;;;11.90;1.00;;;;;;5049433;28;20978;-56
2023/01/05 11:29:23;;;;;;;5.67;1.90;;;12.00;1.00;;;;;;5049511;28;20510;-57
2023/01/05 11:32:04;;;;;;;3.30;1.70;;;12.20;1.00;;;;;;5050355;28;20842;-56
2023/01/05 11:34:50;;;;;;;3.93;1.60;;;12.30;1.00;;;;;;5049052;28;20225;-57
2023/01/05 11:37:22;;;;;;;3.43;1.60;;;12.50;1.00;;;;;;5048003;28;20872;-55
2023/01/05 11:39:57;;;;;;;3.90;2.07;;;12.50;1.00;;;;;;5049413;28;20462;-57
2023/01/05 11:42:22;;;;;;;4.70;1.60;;;12.60;1.00;;;;;;5049296;28;20493;-57
2023/01/05 11:44:53;;;;;;;2.70;1.77;;;12.50;1.00;;;;;;5050403;28;20954;-56
2023/01/05 11:47:27;;;;;;;4.27;1.63;;;12.70;1.00;;;;;;5049297;28;20228;-56
2023/01/05 11:50:08;;;;;;;5.80;2.00;;;12.70;1.00;;;;;;5047254;28;20460;-57
2023/01/05 11:52:46;;;;;;;4.30;1.70;;;12.70;1.00;;;;;;5049309;28;20460;-56
2023/01/05 11:55:26;;;;;;;3.63;1.63;;;12.80;1.00;;;;;;5048979;28;20517;-56
2023/01/05 11:57:53;;;;;;;2.70;1.57;;;12.70;1.00;;;;;;5048398;28;20473;-55
2023/01/05 12:00:35;;;;;;;2.70;1.30;;;12.80;1.00;;;;;;5048670;28;20449;-56
2023/01/05 12:03:38;;;;;;;3.47;1.60;;;12.70;1.00;;;;;;5056022;28;20435;-54
2023/01/05 12:06:44;;;;;;;2.87;1.63;;;12.80;1.00;;;;;;5049167;28;20823;-54
2023/01/05 12:09:21;;;;;;;4.20;1.60;;;12.90;1.00;;;;;;5046591;28;20977;-53
2023/01/05 12:12:04;;;;;;;4.13;1.97;;;13.10;1.00;;;;;;5047563;28;20933;-55
2023/01/05 12:14:54;;;;;;;7.27;1.57;;;13.00;1.00;;;;;;5048663;28;20533;-53
2023/01/05 12:17:33;;;;;;;3.80;1.53;;;13.10;1.00;;;;;;5048897;28;20803;-54
2023/01/05 12:20:30;;;;;;;3.83;1.50;;;13.10;1.00;;;;;;5046713;28;21120;-54
2023/01/05 12:23:17;;;;;;;2.80;1.80;;;13.00;1.00;;;;;;5031526;28;20507;-55
2023/01/05 12:26:15;;;;;;;4.63;2.63;;;12.90;1.00;;;;;;5048466;28;20445;-54
2023/01/05 12:29:04;;;;;;;2.03;1.43;;;12.90;1.00;;;;;;5040039;28;20751;-53
2023/01/05 12:32:09;;;;;;;2.60;1.30;;;12.80;1.00;;;;;;5042819;28;20788;-54
2023/01/05 12:34:56;;;;;;;2.73;1.30;;;11.60;1.00;;;;;;5049366;28;20430;-53
2023/01/05 12:37:28;;;;;;;1.57;1.37;;;12.50;1.00;;;;;;5049977;28;20473;-56
2023/01/05 12:39:59;;;;;;;5.53;1.83;;;12.60;1.00;;;;;;5049187;28;20942;-55
2023/01/05 12:42:49;;;;;;;1.47;1.10;;;12.60;1.00;;;;;;5048854;28;20436;-53
2023/01/05 12:45:33;;;;;;;2.97;1.17;;;12.60;1.00;;;;;;5048634;28;21232;-54
2023/01/05 12:48:09;;;;;;;4.60;1.30;;;12.70;1.00;;;;;;5048290;28;20454;-53
2023/01/05 12:50:42;;;;;;;2.70;1.30;;;12.70;1.00;;;;;;5048384;28;20429;-54
2023/01/05 12:53:32;;;;;;;2.97;1.57;;;12.60;1.00;;;;;;5048186;28;20441;-56
2023/01/05 12:56:07;;;;;;;2.10;1.17;;;12.60;1.00;;;;;;5048479;28;20988;-53
2023/01/05 12:58:40;;;;;;;2.73;1.37;;;12.70;1.00;;;;;;5048630;28;20471;-56
2023/01/05 13:01:16;;;;;;;4.20;1.43;;;12.70;1.00;;;;;;5046776;28;20503;-53
2023/01/05 13:04:11;;;;;;;2.77;1.27;;;12.50;1.00;;;;;;5048164;28;20782;-52
2023/01/05 13:06:41;;;;;;;3.47;1.73;;;12.00;1.00;;;;;;5047099;28;21038;-53
2023/01/05 13:09:19;;;;;;;3.10;1.67;;;11.90;1.00;;;;;;5054065;28;20427;-54
2023/01/05 13:12:07;;;;;;;4.57;2.43;;;11.70;1.00;;;;;;5068250;28;20448;-54
2023/01/05 13:14:35;;;;;;;7.30;2.00;;;11.70;1.00;;;;;;5068059;28;20892;-54
2023/01/05 13:17:11;;;;;;;2.97;1.70;;;11.80;1.00;;;;;;5062128;28;20530;-54
2023/01/05 13:19:43;;;;;;;4.97;1.53;;;11.90;1.00;;;;;;5050277;28;20461;-54
2023/01/05 13:22:23;;;;;;;7.13;1.70;;;11.90;1.00;;;;;;5048429;28;20444;-52
2023/01/05 13:25:02;;;;;;;3.20;1.80;;;12.00;1.00;;;;;;5048347;28;20442;-55
2023/01/05 13:27:29;;;;;;;3.00;1.63;;;12.10;1.00;;;;;;5048221;28;20476;-54
2023/01/05 13:29:58;;;;;;;3.80;1.53;;;12.10;1.00;;;;;;5065307;28;20433;-52
2023/01/05 13:32:55;;;;;;;6.03;3.30;;;12.10;1.00;;;;;;5068127;28;20422;-53
2023/01/05 13:36:07;;;;;;;3.03;1.60;;;12.20;1.00;;;;;;5051765;28;20437;-52
2023/01/05 13:38:58;;;;;;;7.83;1.90;;;12.20;1.00;;;;;;5051838;28;20940;-53
2023/01/05 13:41:54;;;;;;;3.00;1.53;;;12.30;1.00;;;;;;5051601;28;20444;-54
2023/01/05 13:44:28;;;;;;;3.23;1.73;;;12.20;1.00;;;;;;5051933;28;20441;-55
2023/01/05 13:47:17;;;;;;;4.40;1.60;;;12.10;1.00;;;;;;5049743;28;20496;-53
2023/01/05 13:50:02;;;;;;;4.70;2.67;;;11.90;1.00;;;;;;5051602;28;20469;-52
2023/01/05 13:52:46;;;;;;;2.87;1.70;;;11.80;1.00;;;;;;5051793;28;20442;-52